Time;durP1;ratioP1;P1;durP2;ratioP2;P2;SDS_P1;SDS_P2;PMS_P1;PMS_P2;Temp;Humidity;BMP_temperature;BMP_pressure;BME280_temperature;BME280_humidity;BME280_pressure;Samples;Min_cycle;Max_cycle;Signal;HPM_P1;HPM_P2
2023/04/26 00:00:05;;;;;;;9.60;4.53;;;;;;;4.75;100.00;101853.31;5272589;28;20025;-68
2023/04/26 00:02:36;;;;;;;8.52;4.40;;;;;;;4.71;100.00;101856.94;5282778;28;20714;-68
2023/04/26 00:05:07;;;;;;;8.50;3.60;;;;;;;4.69;100.00;101854.41;5281118;28;20094;-68
2023/04/26 00:07:39;;;;;;;6.15;3.38;;;;;;;4.68;100.00;101851.88;5285087;28;20381;-68
2023/04/26 00:10:10;;;;;;;6.72;3.75;;;;;;;4.65;100.00;101850.25;5279533;28;20359;-68
2023/04/26 00:12:41;;;;;;;8.07;3.95;;;;;;;4.62;100.00;101852.97;5283515;28;20027;-68
2023/04/26 00:15:13;;;;;;;7.70;4.20;;;;;;;4.64;100.00;101851.19;5279315;28;20455;-68
2023/04/26 00:17:44;;;;;;;6.40;3.47;;;;;;;4.58;100.00;101851.44;5278012;28;20027;-68
2023/04/26 00:20:15;;;;;;;7.82;3.70;;;;;;;4.52;100.00;101846.53;5279411;28;20025;-68
2023/04/26 00:22:47;;;;;;;7.63;4.20;;;;;;;4.60;100.00;101854.81;5281164;28;20028;-68
2023/04/26 00:25:18;;;;;;;6.93;3.88;;;;;;;4.59;100.00;101856.56;5277308;28;20040;-68
2023/04/26 00:27:51;;;;;;;7.28;4.07;;;;;;;4.59;100.00;101848.78;5272940;28;20032;-68
2023/04/26 00:30:22;;;;;;;8.93;4.30;;;;;;;4.49;100.00;101847.50;5277694;28;20104;-68
2023/04/26 00:32:53;;;;;;;8.90;4.57;;;;;;;4.52;100.00;101852.56;5277569;28;20187;-68
2023/04/26 00:35:24;;;;;;;7.20;4.25;;;;;;;4.46;100.00;101846.78;5282422;28;20024;-68
2023/04/26 00:37:56;;;;;;;6.72;4.22;;;;;;;4.43;100.00;101850.34;5281733;28;20039;-68
2023/04/26 00:40:27;;;;;;;10.93;4.43;;;;;;;4.45;100.00;101850.28;5281300;28;20020;-68
2023/04/26 00:42:58;;;;;;;6.18;3.45;;;;;;;4.43;100.00;101850.34;5281392;28;20064;-68
2023/04/26 00:45:30;;;;;;;8.75;4.28;;;;;;;4.39;100.00;101851.38;5273835;28;20034;-68
2023/04/26 00:48:02;;;;;;;8.85;4.40;;;;;;;4.38;100.00;101842.75;5283083;28;20032;-68
2023/04/26 00:50:33;;;;;;;8.90;4.57;;;;;;;4.30;100.00;101844.00;5275667;28;20035;-68
2023/04/26 00:53:07;;;;;;;9.23;4.45;;;;;;;4.29;100.00;101847.53;5282676;28;20058;-68
2023/04/26 00:55:38;;;;;;;;;;;;;;;4.93;99.48;101854.25;5280747;28;20024;-68
2023/04/26 00:58:09;;;;;;;9.37;4.27;;;;;;;4.31;100.00;101861.25;5282065;28;19919;-68
2023/04/26 01:00:41;;;;;;;8.75;4.28;;;;;;;4.28;100.00;101854.47;5277474;28;20301;-68
2023/04/26 01:03:12;;;;;;;9.45;4.68;;;;;;;4.25;100.00;101853.75;5279901;28;20046;-68
2023/04/26 01:05:44;;;;;;;10.57;4.35;;;;;;;4.22;100.00;101861.66;5277046;28;20195;-67
2023/04/26 01:08:19;;;;;;;8.35;4.57;;;;;;;4.14;100.00;101847.25;5275130;28;20028;-68
2023/04/26 01:10:51;;;;;;;7.72;4.68;;;;;;;4.07;100.00;101847.56;5277542;28;20036;-68
2023/04/26 01:13:24;;;;;;;6.65;3.97;;;;;;;4.08;100.00;101847.50;5279085;28;20036;-68
2023/04/26 01:15:57;;;;;;;7.97;4.65;;;;;;;4.07;100.00;101856.19;5279969;28;20127;-67
2023/04/26 01:18:28;;;;;;;7.40;4.05;;;;;;;4.04;100.00;101850.28;5276857;28;20028;-68
2023/04/26 01:21:00;;;;;;;5.95;4.20;;;;;;;3.99;100.00;101849.63;5274073;28;20071;-68
2023/04/26 01:23:31;;;;;;;7.43;4.30;;;;;;;3.98;100.00;101851.38;5279193;28;20078;-68
2023/04/26 01:26:02;;;;;;;6.35;4.13;;;;;;;3.96;100.00;101848.00;5286315;28;20071;-68
2023/04/26 01:28:33;;;;;;;9.18;4.60;;;;;;;3.97;100.00;101852.28;5280656;28;20101;-68
2023/04/26 01:31:05;;;;;;;9.38;4.70;;;;;;;3.95;100.00;101861.03;5286378;28;20025;-68
2023/04/26 01:33:36;;;;;;;10.77;4.80;;;;;;;3.91;100.00;101862.91;5283710;28;20020;-68
2023/04/26 01:36:10;;;;;;;9.52;4.57;;;;;;;4.00;100.00;101859.94;5276118;28;20040;-68
2023/04/26 01:38:41;;;;;;;8.25;4.30;;;;;;;3.85;100.00;101869.19;5276141;28;20482;-68
2023/04/26 01:41:13;;;;;;;7.03;4.53;;;;;;;3.88;100.00;101868.22;5282992;28;20043;-68
2023/04/26 01:43:44;;;;;;;8.07;4.70;;;;;;;3.79;100.00;101869.44;5286565;28;20081;-68
2023/04/26 01:46:15;;;;;;;7.30;4.72;;;;;;;3.73;100.00;101861.91;5284310;28;20056;-68
2023/04/26 01:48:47;;;;;;;8.40;3.95;;;;;;;3.74;100.00;101850.63;5283456;28;20038;-68
2023/04/26 01:51:18;;;;;;;10.75;4.78;;;;;;;3.73;100.00;101848.09;5288348;28;20114;-68
2023/04/26 01:53:49;;;;;;;9.02;4.72;;;;;;;3.65;100.00;101848.41;5282089;28;20039;-67
2023/04/26 01:56:22;;;;;;;9.55;5.25;;;;;;;3.62;100.00;101846.78;5285320;28;20229;-68
2023/04/26 01:58:55;;;;;;;12.63;5.22;;;;;;;3.60;100.00;101853.78;5287487;28;20023;-68
2023/04/26 02:01:26;;;;;;;8.07;4.57;;;;;;;3.61;100.00;101858.03;5281128;28;20043;-68
2023/04/26 02:03:57;;;;;;;9.15;4.40;;;;;;;3.60;100.00;101851.19;5279905;28;20032;-68
2023/04/26 02:06:30;;;;;;;7.55;4.88;;;;;;;3.59;100.00;101849.47;5283615;28;20064;-68
2023/04/26 02:09:02;;;;;;;8.65;5.15;;;;;;;3.58;100.00;101850.38;5277085;28;20028;-68
2023/04/26 02:11:34;;;;;;;9.10;5.03;;;;;;;3.56;100.00;101859.13;5278871;28;20121;-68
2023/04/26 02:14:05;;;;;;;7.78;4.78;;;;;;;3.53;100.00;101856.66;5280469;28;20032;-68
2023/04/26 02:16:38;;;;;;;9.93;4.90;;;;;;;3.53;100.00;101854.91;5283657;28;20028;-67
2023/04/26 02:19:10;;;;;;;9.57;4.82;;;;;;;3.48;100.00;101851.63;5284357;28;20032;-68
2023/04/26 02:21:56;;;;;;;11.80;5.95;;;;;;;3.62;100.00;101849.34;5278173;28;20489;-68
2023/04/26 02:24:28;;;;;;;9.05;5.07;;;;;;;3.44;100.00;101855.25;5286721;28;20178;-67
2023/04/26 02:27:02;;;;;;;7.32;5.20;;;;;;;3.40;100.00;101853.69;5276953;28;20629;-68
2023/04/26 02:29:35;;;;;;;8.60;4.80;;;;;;;3.36;100.00;101836.59;5283897;28;20912;-67
2023/04/26 02:32:07;;;;;;;8.13;5.22;;;;;;;3.36;100.00;101847.78;5282772;28;20558;-67
2023/04/26 02:34:38;;;;;;;8.68;4.85;;;;;;;3.32;100.00;101846.22;5287150;28;20063;-68
2023/04/26 02:37:10;;;;;;;11.68;5.40;;;;;;;3.37;100.00;101853.81;5280958;28;20028;-68
2023/04/26 02:39:41;;;;;;;9.82;5.00;;;;;;;3.34;100.00;101848.75;5272413;28;20024;-67
2023/04/26 02:42:12;;;;;;;9.48;5.47;;;;;;;3.31;100.00;101847.13;5280968;28;20053;-67
2023/04/26 02:44:43;;;;;;;8.43;5.55;;;;;;;3.32;100.00;101850.56;5281114;28;20031;-67
2023/04/26 02:47:15;;;;;;;8.68;5.03;;;;;;;3.25;100.00;101851.69;5285927;28;20039;-67
2023/04/26 02:49:46;;;;;;;10.10;5.85;;;;;;;3.27;100.00;101850.75;5284310;28;20059;-67
2023/04/26 02:52:18;;;;;;;9.18;5.60;;;;;;;3.25;100.00;101841.31;5280999;28;20029;-67
2023/04/26 02:54:49;;;;;;;9.50;4.78;;;;;;;3.30;100.00;101848.03;5273801;28;20039;-67
2023/04/26 02:57:21;;;;;;;8.45;5.05;;;;;;;3.16;100.00;101834.75;5280787;28;20024;-69
2023/04/26 02:59:52;;;;;;;13.55;6.35;;;;;;;2.95;100.00;101836.41;5278777;28;20023;-67
2023/04/26 03:02:24;;;;;;;9.70;5.43;;;;;;;3.03;100.00;101834.41;5282097;28;20058;-67
2023/04/26 03:04:55;;;;;;;10.23;5.25;;;;;;;3.06;100.00;101836.84;5281829;28;20744;-67
2023/04/26 03:07:27;;;;;;;10.82;5.80;;;;;;;3.04;100.00;101832.66;5278892;28;20606;-67
2023/04/26 03:09:58;;;;;;;14.27;5.30;;;;;;;3.02;100.00;101832.69;5286070;28;20024;-67
2023/04/26 03:12:29;;;;;;;11.63;5.53;;;;;;;2.98;100.00;101828.53;5279159;28;20436;-67
2023/04/26 03:15:02;;;;;;;8.77;5.47;;;;;;;3.00;100.00;101829.31;5283844;28;20024;-67
2023/04/26 03:17:34;;;;;;;11.45;6.07;;;;;;;2.99;100.00;101834.53;5282004;28;20349;-67
2023/04/26 03:20:06;;;;;;;11.80;6.38;;;;;;;2.96;100.00;101834.69;5277776;28;20073;-67
2023/04/26 03:22:38;;;;;;;11.77;5.57;;;;;;;2.97;100.00;101829.44;5285645;28;20552;-68
2023/04/26 03:25:09;;;;;;;14.23;6.15;;;;;;;2.95;100.00;101831.22;5278997;28;20036;-67
2023/04/26 03:27:41;;;;;;;10.48;5.95;;;;;;;2.96;100.00;101820.00;5280462;28;20891;-68
2023/04/26 03:30:13;;;;;;;11.52;6.30;;;;;;;2.96;100.00;101821.75;5281969;28;20500;-67
2023/04/26 03:32:44;;;;;;;11.85;5.70;;;;;;;2.93;100.00;101831.28;5279976;28;20500;-68
2023/04/26 03:35:16;;;;;;;9.85;5.90;;;;;;;2.82;100.00;101817.06;5281883;28;20040;-68
2023/04/26 03:37:47;;;;;;;11.68;6.00;;;;;;;2.84;100.00;101823.00;5280532;28;20067;-68
2023/04/26 03:40:18;;;;;;;10.32;5.97;;;;;;;2.84;100.00;101823.00;5287010;28;20123;-67
2023/04/26 03:42:50;;;;;;;12.85;5.72;;;;;;;2.83;100.00;101821.31;5282744;28;20040;-67
2023/04/26 03:45:21;;;;;;;12.85;6.15;;;;;;;2.80;100.00;101818.84;5284665;28;20152;-68
2023/04/26 03:47:53;;;;;;;10.20;5.78;;;;;;;2.81;100.00;101826.56;5284075;28;20024;-67
2023/04/26 03:50:24;;;;;;;12.93;5.97;;;;;;;2.80;100.00;101822.28;5285136;28;20016;-68
2023/04/26 03:52:55;;;;;;;10.07;5.35;;;;;;;2.85;100.00;101819.53;5278888;28;20032;-67
2023/04/26 03:55:27;;;;;;;11.27;5.45;;;;;;;2.83;100.00;101817.00;5284678;28;20024;-67
2023/04/26 03:57:58;;;;;;;11.32;6.30;;;;;;;2.79;100.00;101830.09;5282710;28;20055;-67
2023/04/26 04:00:29;;;;;;;10.85;5.38;;;;;;;2.79;100.00;101827.53;5274666;28;20326;-67
2023/04/26 04:03:01;;;;;;;8.80;6.43;;;;;;;2.71;100.00;101832.13;5282004;28;20031;-67
2023/04/26 04:05:32;;;;;;;8.35;6.05;;;;;;;2.68;100.00;101831.34;5278464;28;20016;-67
2023/04/26 04:08:04;;;;;;;8.80;5.43;;;;;;;2.63;100.00;101828.06;5277751;28;20032;-67
2023/04/26 04:10:36;;;;;;;10.13;5.90;;;;;;;2.66;100.00;101827.13;5279384;28;20027;-67
2023/04/26 04:13:08;;;;;;;10.02;6.40;;;;;;;2.65;100.00;101826.28;5283636;28;20481;-67
2023/04/26 04:15:39;;;;;;;9.45;5.88;;;;;;;2.64;100.00;101824.59;5272847;28;20062;-67
2023/04/26 04:18:10;;;;;;;15.65;6.03;;;;;;;2.64;100.00;101826.31;5283972;28;20024;-67
2023/04/26 04:20:41;;;;;;;9.60;6.15;;;;;;;2.55;100.00;101811.16;5279158;28;20139;-67
2023/04/26 04:23:13;;;;;;;10.73;5.97;;;;;;;2.56;100.00;101824.00;5283621;28;20042;-67
2023/04/26 04:25:45;;;;;;;11.75;6.93;;;;;;;2.56;100.00;101820.59;5275859;28;20105;-67
2023/04/26 04:28:16;;;;;;;9.10;5.85;;;;;;;2.58;100.00;101826.56;5276012;28;20029;-67
2023/04/26 04:30:47;;;;;;;9.85;6.00;;;;;;;2.59;100.00;101829.09;5280840;28;20031;-68
2023/04/26 04:33:19;;;;;;;10.52;6.03;;;;;;;2.60;100.00;101835.94;5279496;28;20093;-67
2023/04/26 04:35:51;;;;;;;10.45;6.78;;;;;;;2.58;100.00;101827.41;5280871;28;20035;-67
2023/04/26 04:38:23;;;;;;;11.35;6.15;;;;;;;2.65;100.00;101828.88;5275077;28;20039;-67
2023/04/26 04:40:54;;;;;;;11.50;6.82;;;;;;;2.66;100.00;101830.56;5280161;28;20028;-68
2023/04/26 04:43:26;;;;;;;11.50;7.05;;;;;;;2.73;100.00;101840.66;5278508;28;20043;-68
2023/04/26 04:45:58;;;;;;;10.60;5.90;;;;;;;2.68;100.00;101833.91;5279060;28;20063;-68
2023/04/26 04:48:29;;;;;;;13.50;7.05;;;;;;;2.69;100.00;101847.72;5282596;28;20840;-67
2023/04/26 04:51:01;;;;;;;13.35;6.65;;;;;;;2.75;100.00;101839.72;5275169;28;20393;-67
2023/04/26 04:53:33;;;;;;;12.63;7.22;;;;;;;2.73;100.00;101848.44;5275155;28;20052;-68
2023/04/26 04:56:04;;;;;;;10.82;6.60;;;;;;;2.78;100.00;101846.53;5278761;28;20036;-67
2023/04/26 04:58:36;;;;;;;10.25;6.82;;;;;;;2.86;100.00;101849.69;5279506;28;20131;-67
2023/04/26 05:01:07;;;;;;;12.48;7.13;;;;;;;2.90;100.00;101846.09;5283229;28;20036;-67
2023/04/26 05:03:38;;;;;;;14.15;6.93;;;;;;;2.93;100.00;101841.66;5284398;28;20062;-67
2023/04/26 05:06:10;;;;;;;13.75;8.05;;;;;;;3.01;100.00;101856.06;5284576;28;20031;-67
2023/04/26 05:08:41;;;;;;;13.38;7.43;;;;;;;3.04;100.00;101851.59;5278702;28;20016;-67
2023/04/26 05:11:12;;;;;;;12.45;7.90;;;;;;;3.12;100.00;101849.56;5274055;28;20048;-67
2023/04/26 05:13:45;;;;;;;11.70;7.15;;;;;;;3.23;100.00;101846.59;5292950;28;20028;-67
2023/04/26 05:16:16;;;;;;;10.82;8.05;;;;;;;3.34;100.00;101847.03;5275973;28;20091;-67
2023/04/26 05:18:48;;;;;;;11.20;7.90;;;;;;;3.28;100.00;101839.47;5279993;28;20120;-67
2023/04/26 05:21:20;;;;;;;12.63;7.85;;;;;;;3.40;100.00;101856.28;5284685;28;20028;-67
2023/04/26 05:23:52;;;;;;;14.00;9.13;;;;;;;3.41;100.00;101853.66;5275512;28;20089;-67
2023/04/26 05:26:23;;;;;;;17.55;8.63;;;;;;;3.51;100.00;101851.53;5279120;28;20365;-67
2023/04/26 05:28:54;;;;;;;14.15;8.65;;;;;;;3.55;100.00;101858.28;5284702;28;20028;-67
2023/04/26 05:31:26;;;;;;;11.77;8.77;;;;;;;3.59;100.00;101854.66;5281145;28;20033;-67
2023/04/26 05:33:57;;;;;;;15.43;8.63;;;;;;;3.64;100.00;101850.16;5267624;28;20070;-67
2023/04/26 05:36:28;;;;;;;13.68;8.52;;;;;;;3.71;100.00;101855.06;5279192;28;20031;-67
2023/04/26 05:38:59;;;;;;;12.32;8.75;;;;;;;3.77;100.00;101858.28;5282998;28;20028;-67
2023/04/26 05:41:31;;;;;;;12.55;8.55;;;;;;;3.80;100.00;101859.91;5277374;28;20024;-67
2023/04/26 05:44:02;;;;;;;16.52;9.30;;;;;;;3.81;100.00;101862.44;5283276;28;20024;-67
2023/04/26 05:46:34;;;;;;;13.50;9.13;;;;;;;3.93;100.00;101863.69;5281013;28;20485;-67
2023/04/26 05:49:05;;;;;;;13.30;8.63;;;;;;;4.02;100.00;101860.72;5277698;28;20025;-67
2023/04/26 05:51:36;;;;;;;14.32;8.73;;;;;;;4.04;100.00;101858.06;5275474;28;20029;-67
2023/04/26 05:54:08;;;;;;;14.02;9.13;;;;;;;4.10;100.00;101856.06;5278267;28;20036;-67
2023/04/26 05:56:39;;;;;;;13.00;8.63;;;;;;;4.19;100.00;101862.59;5276761;28;20110;-67
2023/04/26 05:59:12;;;;;;;16.50;9.30;;;;;;;4.29;100.00;101858.72;5273662;28;20031;-67
2023/04/26 06:01:43;;;;;;;15.38;9.57;;;;;;;4.35;100.00;101849.84;5275483;28;20038;-67
2023/04/26 06:04:14;;;;;;;13.48;9.50;;;;;;;4.52;100.00;101857.75;5276951;28;20032;-67
2023/04/26 06:06:46;;;;;;;13.52;9.07;;;;;;;4.65;100.00;101858.03;5274944;28;20602;-68
2023/04/26 06:09:17;;;;;;;16.17;9.13;;;;;;;4.74;100.00;101864.59;5271785;28;20066;-68
2023/04/26 06:11:48;;;;;;;14.75;9.48;;;;;;;4.86;100.00;101866.66;5279401;28;20028;-67
2023/04/26 06:14:20;;;;;;;13.90;9.77;;;;;;;4.98;100.00;101863.50;5280787;28;20201;-68
2023/04/26 06:16:51;;;;;;;15.60;10.07;;;;;;;5.08;100.00;101871.72;5280318;28;20129;-68
2023/04/26 06:19:22;;;;;;;16.50;10.10;;;;;;;5.20;100.00;101875.53;5278742;28;20039;-68
2023/04/26 06:21:55;;;;;;;16.95;10.35;;;;;;;5.25;100.00;101873.56;5274996;28;20405;-67
2023/04/26 06:24:27;;;;;;;17.67;9.75;;;;;;;5.35;100.00;101861.81;5281946;28;20061;-67
2023/04/26 06:26:58;;;;;;;16.42;10.35;;;;;;;5.40;100.00;101875.44;5271759;28;20139;-68
2023/04/26 06:29:31;;;;;;;18.60;9.50;;;;;;;5.55;100.00;101874.72;5281125;28;20029;-68
2023/04/26 06:32:03;;;;;;;16.05;10.48;;;;;;;5.54;100.00;101870.44;5276234;28;20028;-67
2023/04/26 06:34:35;;;;;;;13.25;8.70;;;;;;;5.72;100.00;101884.34;5274086;28;20090;-67
2023/04/26 06:37:07;;;;;;;14.23;9.75;;;;;;;5.92;100.00;101886.00;5272552;28;20476;-67
2023/04/26 06:39:38;;;;;;;15.73;9.80;;;;;;;6.03;100.00;101886.31;5276192;28;20132;-68
2023/04/26 06:42:10;;;;;;;13.23;9.20;;;;;;;6.25;100.00;101888.72;5275963;28;20039;-67
2023/04/26 06:44:41;;;;;;;15.30;9.70;;;;;;;6.34;100.00;101897.81;5275489;28;20036;-68
2023/04/26 06:47:13;;;;;;;13.02;8.88;;;;;;;6.40;100.00;101891.44;5275081;28;20024;-67
2023/04/26 06:49:44;;;;;;;14.93;8.73;;;;;;;6.42;100.00;101885.25;5267179;28;20025;-68
2023/04/26 06:52:16;;;;;;;13.50;8.70;;;;;;;6.52;100.00;101891.69;5277454;28;20129;-67
2023/04/26 06:54:47;;;;;;;11.73;8.18;;;;;;;6.61;100.00;101890.34;5268717;28;20024;-68
2023/04/26 06:57:18;;;;;;;15.13;8.35;;;;;;;6.61;100.00;101885.16;5275528;28;20389;-68
2023/04/26 06:59:50;;;;;;;14.05;8.30;;;;;;;6.58;100.00;101877.47;5277967;28;20540;-68
2023/04/26 07:02:23;;;;;;;11.77;7.57;;;;;;;6.78;100.00;101887.72;5279622;28;20043;-67
2023/04/26 07:04:56;;;;;;;11.88;7.90;;;;;;;6.87;100.00;101891.59;5272899;28;20054;-68
2023/04/26 07:07:27;;;;;;;12.82;8.02;;;;;;;6.98;100.00;101889.28;5276822;28;20024;-68
2023/04/26 07:09:58;;;;;;;12.45;7.32;;;;;;;7.09;100.00;101893.09;5273786;28;20207;-68
2023/04/26 07:12:30;;;;;;;12.82;8.40;;;;;;;7.18;100.00;101889.97;5273660;28;20023;-68
2023/04/26 07:15:02;;;;;;;13.77;8.27;;;;;;;7.27;100.00;101895.56;5274598;28;20453;-68
2023/04/26 07:17:34;;;;;;;13.95;7.63;;;;;;;7.36;100.00;101891.59;5275412;28;20086;-68
2023/04/26 07:20:06;;;;;;;14.63;7.43;;;;;;;7.48;100.00;101896.13;5274185;28;20033;-68
2023/04/26 07:22:37;;;;;;;13.40;7.38;;;;;;;7.61;100.00;101892.84;5273316;28;20079;-68
2023/04/26 07:25:09;;;;;;;10.88;6.65;;;;;;;7.73;100.00;101892.19;5274400;28;20027;-68
2023/04/26 07:27:40;;;;;;;12.07;6.60;;;;;;;7.87;100.00;101901.81;5272875;28;20036;-68
2023/04/26 07:30:11;;;;;;;12.07;6.55;;;;;;;7.86;100.00;101887.09;5274638;28;20377;-68
2023/04/26 07:32:43;;;;;;;13.60;6.47;;;;;;;7.97;100.00;101895.16;5273272;28;20128;-68
2023/04/26 07:35:14;;;;;;;10.73;6.35;;;;;;;8.13;100.00;101888.13;5274653;28;20031;-68
2023/04/26 07:37:46;;;;;;;10.82;7.10;;;;;;;8.21;100.00;101883.28;5276901;28;20357;-68
2023/04/26 07:40:18;;;;;;;10.75;5.53;;;;;;;8.38;100.00;101887.56;5277779;28;20040;-68
2023/04/26 07:42:49;;;;;;;10.10;4.80;;;;;;;8.61;95.70;101886.22;5276312;28;20028;-68
2023/04/26 07:45:21;;;;;;;12.05;5.07;;;;;;;8.73;95.59;101879.41;5277102;28;20086;-68
2023/04/26 07:47:53;;;;;;;11.15;5.55;;;;;;;8.88;96.54;101877.63;5280175;28;20031;-68
2023/04/26 07:50:24;;;;;;;7.22;4.50;;;;;;;8.84;91.20;101881.38;5283011;28;20059;-68
2023/04/26 07:52:55;;;;;;;8.88;3.78;;;;;;;8.83;87.11;101875.31;5273089;28;20114;-68
2023/04/26 07:55:27;;;;;;;13.20;4.40;;;;;;;8.89;88.30;101882.75;5281770;28;20082;-68
2023/04/26 07:57:58;;;;;;;8.75;4.43;;;;;;;8.98;89.40;101878.75;5278047;28;20030;-68
2023/04/26 08:00:29;;;;;;;8.15;4.28;;;;;;;9.08;83.67;101889.47;5275202;28;20384;-68
2023/04/26 08:03:02;;;;;;;9.40;4.93;;;;;;;9.14;86.89;101894.31;5278071;28;20453;-68
2023/04/26 08:05:33;;;;;;;8.32;4.45;;;;;;;9.11;84.89;101895.34;5279722;28;20028;-68
2023/04/26 08:08:04;;;;;;;11.40;4.35;;;;;;;9.17;82.21;101897.59;5275611;28;20028;-68
2023/04/26 08:10:38;;;;;;;8.45;3.67;;;;;;;9.34;83.35;101900.91;5274971;28;20020;-68
2023/04/26 08:13:10;;;;;;;8.73;3.40;;;;;;;9.54;80.48;101903.09;5282557;28;20374;-68
2023/04/26 08:15:41;;;;;;;6.68;3.20;;;;;;;9.81;77.85;101912.75;5282572;28;20110;-68
2023/04/26 08:18:12;;;;;;;7.65;3.75;;;;;;;10.01;79.49;101907.06;5274426;28;20078;-68
2023/04/26 08:20:44;;;;;;;8.07;4.15;;;;;;;10.09;73.64;101904.78;5273011;28;20240;-68
2023/04/26 08:23:15;;;;;;;8.18;3.22;;;;;;;9.97;68.94;101895.13;5272580;28;20032;-68
2023/04/26 08:25:46;;;;;;;9.50;3.47;;;;;;;9.99;74.14;101894.06;5279719;28;20075;-68
2023/04/26 08:28:18;;;;;;;6.65;3.17;;;;;;;9.99;73.31;101888.84;5279467;28;20032;-68
2023/04/26 08:30:49;;;;;;;6.63;2.80;;;;;;;10.01;66.50;101901.00;5282487;28;20032;-68
2023/04/26 08:33:20;;;;;;;6.78;1.83;;;;;;;10.05;66.77;101903.31;5292347;28;20021;-68
2023/04/26 08:35:51;;;;;;;7.50;1.70;;;;;;;10.12;66.74;101896.75;5284232;28;20032;-68
2023/04/26 08:38:23;;;;;;;5.78;2.33;;;;;;;10.24;68.35;101895.91;5283334;28;20020;-68
2023/04/26 08:40:57;;;;;;;5.10;1.95;;;;;;;10.22;64.40;101900.41;5278793;28;20023;-68
2023/04/26 08:43:28;;;;;;;7.47;2.30;;;;;;;10.28;64.91;101899.22;5280387;28;20029;-68
2023/04/26 08:46:00;;;;;;;8.70;2.15;;;;;;;10.31;62.29;101892.94;5279950;28;20028;-68
2023/04/26 08:48:33;;;;;;;7.63;2.30;;;;;;;10.25;62.68;101896.78;5277902;28;20031;-68
2023/04/26 08:51:06;;;;;;;6.40;1.80;;;;;;;10.32;64.26;101895.44;5281634;28;20393;-68
2023/04/26 08:53:38;;;;;;;5.38;1.90;;;;;;;10.22;62.82;101894.34;5278495;28;20096;-68
2023/04/26 08:56:11;;;;;;;6.35;2.85;;;;;;;10.07;59.77;101895.34;5284634;28;20895;-68
2023/04/26 08:58:42;;;;;;;4.70;2.40;;;;;;;10.19;63.58;101894.53;5279168;28;20116;-68
2023/04/26 09:01:14;;;;;;;8.43;2.40;;;;;;;10.28;63.45;101893.13;5275002;28;20047;-68
2023/04/26 09:03:46;;;;;;;7.65;2.55;;;;;;;10.54;60.86;101894.84;5279056;28;20378;-69
2023/04/26 09:06:18;;;;;;;6.10;2.30;;;;;;;10.77;58.85;101890.66;5273372;28;20027;-69
2023/04/26 09:08:52;;;;;;;7.88;2.40;;;;;;;10.98;57.73;101880.44;5283149;28;20138;-69
2023/04/26 09:11:23;;;;;;;5.82;2.72;;;;;;;10.96;53.91;101883.19;5277373;28;20031;-69
2023/04/26 09:13:54;;;;;;;4.95;2.08;;;;;;;10.94;54.38;101873.72;5284446;28;20043;-69
2023/04/26 09:16:35;;;;;;;7.40;2.67;;;;;;;11.19;56.09;101864.97;5275637;28;20233;-69
2023/04/26 09:19:07;;;;;;;5.10;2.17;;;;;;;11.25;55.27;101880.31;5279255;28;20059;-69
2023/04/26 09:21:46;;;;;;;5.38;2.08;;;;;;;11.51;52.78;101873.16;5276471;28;20028;-69
2023/04/26 09:24:17;;;;;;;6.47;2.38;;;;;;;11.52;52.76;101874.84;5286468;28;20035;-69
2023/04/26 09:27:00;;;;;;;7.63;2.60;;;;;;;11.56;52.84;101867.59;5284033;28;20063;-68
2023/04/26 09:29:31;;;;;;;5.63;2.55;;;;;;;11.52;54.47;101876.66;5277216;28;20078;-69
2023/04/26 09:32:03;;;;;;;5.43;2.50;;;;;;;11.48;48.87;101875.16;5289319;28;20029;-68
2023/04/26 09:34:45;;;;;;;6.13;2.55;;;;;;;11.64;55.56;101871.34;5284197;28;20035;-69
2023/04/26 09:37:16;;;;;;;6.13;2.25;;;;;;;11.50;53.80;101879.38;5275767;28;20110;-69
2023/04/26 09:39:48;;;;;;;5.18;2.80;;;;;;;11.59;53.89;101875.22;5283601;28;20038;-69
2023/04/26 09:42:20;;;;;;;7.57;2.60;;;;;;;11.62;51.95;101877.63;5280337;28;20107;-69
2023/04/26 09:44:53;;;;;;;6.68;1.95;;;;;;;11.63;48.74;101869.66;5280337;28;20029;-69
2023/04/26 09:47:25;;;;;;;5.25;1.67;;;;;;;11.69;51.58;101874.44;5274321;28;20043;-69
2023/04/26 09:49:56;;;;;;;4.07;1.95;;;;;;;11.68;46.62;101879.81;5275589;28;20033;-68
2023/04/26 09:52:27;;;;;;;5.07;2.13;;;;;;;11.75;47.81;101873.19;5281736;28;20864;-68
2023/04/26 09:55:01;;;;;;;7.63;2.70;;;;;;;11.77;50.54;101875.69;5280689;28;20040;-69
2023/04/26 09:57:41;;;;;;;;;;;;;;;12.52;52.81;101870.91;5282523;28;20033;-69
2023/04/26 10:00:13;;;;;;;6.03;2.05;;;;;;;11.69;49.83;101866.56;5280139;28;20371;-69
2023/04/26 10:02:45;;;;;;;6.88;2.05;;;;;;;11.72;52.60;101862.91;5280172;28;20036;-68
2023/04/26 10:05:17;;;;;;;4.33;2.60;;;;;;;11.66;49.73;101872.03;5277456;28;20055;-69
2023/04/26 10:07:49;;;;;;;5.75;2.42;;;;;;;11.57;50.14;101875.34;5277003;28;20115;-69
2023/04/26 10:10:20;;;;;;;6.07;2.42;;;;;;;11.60;50.05;101869.88;5272268;28;20283;-68
2023/04/26 10:12:52;;;;;;;6.18;2.83;;;;;;;11.51;52.50;101869.69;5282969;28;20046;-69
2023/04/26 10:15:23;;;;;;;6.43;3.10;;;;;;;11.47;51.25;101868.25;5281194;28;20389;-69
2023/04/26 10:17:55;;;;;;;8.68;2.50;;;;;;;11.41;50.81;101872.16;5272376;28;20020;-69
2023/04/26 10:20:28;;;;;;;4.97;2.30;;;;;;;11.41;51.59;101869.53;5278196;28;20378;-69
2023/04/26 10:23:00;;;;;;;6.15;2.83;;;;;;;11.43;49.61;101865.84;5277106;28;20032;-69
2023/04/26 10:25:39;;;;;;;5.78;2.67;;;;;;;11.48;50.93;101869.91;5277889;28;20083;-69
2023/04/26 10:28:10;;;;;;;4.90;2.60;;;;;;;11.27;49.26;101867.06;5279287;28;20069;-68
2023/04/26 10:30:56;;;;;;;6.93;2.70;;;;;;;11.48;51.00;101868.16;5277054;28;20017;-69
2023/04/26 10:33:27;;;;;;;6.82;3.08;;;;;;;11.37;51.84;101865.47;5284436;28;20119;-69
2023/04/26 10:36:01;;;;;;;6.90;2.88;;;;;;;11.33;51.70;101866.63;5281395;28;20103;-68
2023/04/26 10:38:33;;;;;;;5.60;2.65;;;;;;;11.23;49.97;101869.06;5273259;28;20048;-68
2023/04/26 10:41:29;;;;;;;7.32;3.03;;;;;;;11.73;53.88;101868.97;5271400;28;20031;-69
2023/04/26 10:44:39;;;;;;;11.52;3.60;;;;;;;11.74;54.57;101866.22;5274874;28;20134;-69
2023/04/26 10:47:33;;;;;;;6.10;2.40;;;;;;;11.78;51.58;101859.84;5275254;28;20099;-68
2023/04/26 10:50:09;;;;;;;7.75;3.05;;;;;;;11.74;52.73;101858.34;5280785;28;20285;-68
2023/04/26 10:52:59;;;;;;;8.13;2.90;;;;;;;12.04;52.94;101859.69;5279574;28;20030;-69
2023/04/26 10:55:41;;;;;;;6.60;2.92;;;;;;;11.86;50.40;101857.50;5274734;28;20032;-68
2023/04/26 10:58:31;;;;;;;6.50;2.78;;;;;;;12.06;53.35;101852.56;5276844;28;20024;-68
2023/04/26 11:01:17;;;;;;;7.97;3.30;;;;;;;12.22;53.56;101853.06;5281327;28;20040;-68
2023/04/26 11:03:56;;;;;;;7.80;2.92;;;;;;;12.31;52.40;101855.00;5278755;28;20028;-68
2023/04/26 11:06:51;;;;;;;7.05;3.17;;;;;;;12.41;50.94;101855.13;5273635;28;20036;-69
2023/04/26 11:09:47;;;;;;;8.20;3.38;;;;;;;12.36;49.58;101852.03;5278697;28;20352;-68
2023/04/26 11:12:21;;;;;;;4.93;2.78;;;;;;;12.27;46.06;101848.28;5276383;28;20036;-69
2023/04/26 11:14:52;;;;;;;6.63;2.75;;;;;;;12.29;47.91;101850.81;5277664;28;20317;-68
2023/04/26 11:17:23;;;;;;;7.85;3.75;;;;;;;12.45;46.05;101840.78;5271953;28;20027;-69
2023/04/26 11:19:54;;;;;;;6.95;2.75;;;;;;;12.74;47.86;101842.97;5273107;28;20474;-69
2023/04/26 11:22:27;;;;;;;6.60;2.80;;;;;;;12.74;46.96;101849.06;5280672;28;20039;-68
2023/04/26 11:24:59;;;;;;;4.68;2.58;;;;;;;12.84;44.46;101838.66;5280224;28;20438;-69
2023/04/26 11:27:30;;;;;;;6.13;3.45;;;;;;;12.79;45.22;101839.00;5276576;28;20036;-69
2023/04/26 11:30:03;;;;;;;7.75;3.47;;;;;;;12.73;43.71;101833.38;5281028;28;20498;-69
2023/04/26 11:32:35;;;;;;;6.72;3.33;;;;;;;12.74;45.87;101824.56;5277334;28;20031;-69
2023/04/26 11:35:07;;;;;;;7.28;3.20;;;;;;;12.88;44.66;101817.28;5276129;28;21008;-69
2023/04/26 11:37:38;;;;;;;7.88;3.35;;;;;;;12.82;45.84;101812.47;5281254;28;20103;-69
2023/04/26 11:40:13;;;;;;;5.40;2.60;;;;;;;12.87;45.30;101823.47;5273082;28;20029;-69
2023/04/26 11:42:44;;;;;;;7.60;3.72;;;;;;;12.82;44.86;101812.47;5277162;28;20488;-69
2023/04/26 11:45:16;;;;;;;9.82;3.70;;;;;;;12.69;47.03;101821.44;5276615;28;20032;-69